Time;durP1;ratioP1;P1;durP2;ratioP2;P2;SDS_P1;SDS_P2;PMS_P1;PMS_P2;Temp;Humidity;BMP_temperature;BMP_pressure;BME280_temperature;BME280_humidity;BME280_pressure;Samples;Min_cycle;Max_cycle;Signal;HPM_P1;HPM_P2
2022/12/13 00:01:20;;;;;;;1.42;0.32;;;;;;;;;;4207572;28;20569;-42
2022/12/13 00:03:21;;;;;;;0.82;0.40;;;;;;;;;;4224923;28;20355;-44
2022/12/13 00:05:22;;;;;;;1.25;0.70;;;;;;;;;;4231976;28;20056;-42
2022/12/13 00:07:24;;;;;;;0.90;0.45;;;;;;;;;;4211270;28;20540;-45
2022/12/13 00:09:25;;;;;;;1.67;0.50;;;;;;;;;;4213127;28;20570;-43
2022/12/13 00:11:27;;;;;;;0.75;0.35;;;;;;;;;;4223244;28;20056;-42
2022/12/13 00:13:29;;;;;;;0.60;0.50;;;;;;;;;;4208777;28;20499;-45
2022/12/13 00:15:30;;;;;;;0.68;0.40;;;;;;;;;;4216362;28;20499;-43
2022/12/13 00:17:32;;;;;;;1.52;0.45;;;;;;;;;;4215004;28;20471;-45
2022/12/13 00:19:33;;;;;;;0.30;0.30;;;;;;;;;;4222724;28;20048;-43
2022/12/13 00:21:34;;;;;;;0.45;0.30;;;;;;;;;;4232150;28;20055;-43
2022/12/13 00:23:36;;;;;;;1.17;0.50;;;;;;;;;;4231061;28;20051;-44
2022/12/13 00:25:37;;;;;;;0.70;0.50;;;;;;;;;;4228170;28;20071;-44
2022/12/13 00:27:38;;;;;;;0.82;0.60;;;;;;;;;;4221402;28;20047;-42
2022/12/13 00:29:40;;;;;;;0.80;0.47;;;;;;;;;;4203232;28;20426;-42
2022/12/13 00:31:41;;;;;;;0.70;0.50;;;;;;;;;;4215205;28;20101;-45
2022/12/13 00:33:42;;;;;;;0.50;0.40;;;;;;;;;;4214273;28;20101;-47
2022/12/13 00:35:44;;;;;;;0.95;0.43;;;;;;;;;;4219758;28;20106;-44
2022/12/13 00:37:45;;;;;;;1.27;0.60;;;;;;;;;;4231782;28;20051;-44
2022/12/13 00:39:47;;;;;;;0.60;0.40;;;;;;;;;;4231209;28;20107;-43
2022/12/13 00:41:48;;;;;;;1.42;0.55;;;;;;;;;;4212842;28;20056;-42
2022/12/13 00:43:49;;;;;;;0.63;0.57;;;;;;;;;;4227414;28;20105;-44
2022/12/13 00:45:51;;;;;;;0.73;0.40;;;;;;;;;;4214662;28;20052;-42
2022/12/13 00:47:52;;;;;;;0.93;0.63;;;;;;;;;;4223790;28;20492;-44
2022/12/13 00:49:54;;;;;;;0.63;0.60;;;;;;;;;;4214322;28;20056;-42
2022/12/13 00:51:55;;;;;;;0.57;0.40;;;;;;;;;;4212565;28;20507;-44
2022/12/13 00:53:57;;;;;;;0.38;0.30;;;;;;;;;;4230694;28;20372;-42
2022/12/13 00:55:58;;;;;;;0.60;0.32;;;;;;;;;;4231068;28;20052;-43
2022/12/13 00:57:59;;;;;;;0.50;0.30;;;;;;;;;;4230331;28;20060;-42
2022/12/13 01:00:01;;;;;;;1.00;0.43;;;;;;;;;;4228610;28;20060;-42
2022/12/13 01:02:03;;;;;;;1.05;0.68;;;;;;;;;;4200876;28;20056;-44
2022/12/13 01:04:05;;;;;;;0.50;0.40;;;;;;;;;;4222583;28;20449;-42
2022/12/13 01:06:11;;;;;;;0.60;0.50;;;;;;;;;;4226041;28;20058;-50
2022/12/13 01:08:13;;;;;;;0.63;0.40;;;;;;;;;;4212414;28;20052;-42
2022/12/13 01:10:14;;;;;;;0.45;0.30;;;;;;;;;;4225321;28;20129;-42
2022/12/13 01:12:16;;;;;;;0.40;0.30;;;;;;;;;;4214294;28;20117;-42
2022/12/13 01:14:19;;;;;;;1.10;0.40;;;;;;;;;;4227391;28;20248;-39
2022/12/13 01:16:20;;;;;;;0.65;0.50;;;;;;;;;;4213980;28;20055;-42
2022/12/13 01:18:21;;;;;;;1.25;0.40;;;;;;;;;;4195974;28;20486;-44
2022/12/13 01:20:22;;;;;;;0.90;0.63;;;;;;;;;;4195953;28;20493;-45
2022/12/13 01:22:26;;;;;;;0.98;0.50;;;;;;;;;;4227264;28;20047;-40
2022/12/13 01:24:28;;;;;;;0.80;0.55;;;;;;;;;;4213469;28;20056;-39
2022/12/13 01:26:30;;;;;;;0.73;0.40;;;;;;;;;;4214072;28;20044;-39
2022/12/13 01:28:31;;;;;;;1.00;0.40;;;;;;;;;;4214005;28;20052;-39
2022/12/13 01:30:33;;;;;;;0.32;0.28;;;;;;;;;;4213969;28;20105;-39
2022/12/13 01:32:34;;;;;;;0.90;0.50;;;;;;;;;;4228980;28;20074;-39
2022/12/13 01:34:36;;;;;;;0.70;0.40;;;;;;;;;;4230570;28;20051;-39
2022/12/13 01:36:38;;;;;;;1.17;0.70;;;;;;;;;;4230838;28;20394;-39
2022/12/13 01:38:40;;;;;;;1.25;0.60;;;;;;;;;;4218402;28;20078;-39
2022/12/13 01:40:46;;;;;;;0.85;0.50;;;;;;;;;;4227316;28;20096;-39
2022/12/13 01:42:47;;;;;;;0.75;0.40;;;;;;;;;;4195953;28;20068;-40
2022/12/13 01:44:55;;;;;;;0.60;0.50;;;;;;;;;;4213468;28;20052;-39
2022/12/13 01:46:56;;;;;;;0.47;0.40;;;;;;;;;;4213550;28;20048;-39
2022/12/13 01:49:04;;;;;;;0.40;0.30;;;;;;;;;;4222020;28;20047;-40
2022/12/13 01:51:07;;;;;;;0.35;0.20;;;;;;;;;;4213564;28;20052;-39
2022/12/13 01:53:10;;;;;;;0.70;0.30;;;;;;;;;;4213390;28;20573;-39
2022/12/13 01:55:12;;;;;;;0.45;0.38;;;;;;;;;;4213014;28;20056;-39
2022/12/13 01:57:16;;;;;;;0.82;0.38;;;;;;;;;;4197195;28;20409;-40
2022/12/13 01:59:18;;;;;;;0.20;0.20;;;;;;;;;;4198408;28;20056;-39
2022/12/13 02:01:21;;;;;;;0.75;0.40;;;;;;;;;;4230121;28;20066;-39
2022/12/13 02:03:24;;;;;;;0.88;0.40;;;;;;;;;;4230229;28;20047;-39
2022/12/13 02:05:30;;;;;;;0.98;0.43;;;;;;;;;;4230170;28;20051;-39
2022/12/13 02:07:33;;;;;;;1.05;0.60;;;;;;;;;;4198576;28;20052;-40
2022/12/13 02:09:34;;;;;;;1.02;0.43;;;;;;;;;;4194485;28;20490;-39
2022/12/13 02:11:38;;;;;;;0.70;0.50;;;;;;;;;;4230078;28;20063;-40
2022/12/13 02:13:39;;;;;;;0.75;0.35;;;;;;;;;;4230232;28;20051;-39
2022/12/13 02:15:48;;;;;;;0.60;0.40;;;;;;;;;;4229388;28;20051;-40
2022/12/13 02:17:59;;;;;;;0.60;0.20;;;;;;;;;;4222837;28;20403;-40
2022/12/13 02:20:21;;;;;;;0.50;0.30;;;;;;;;;;4224835;28;20055;-40
2022/12/13 02:22:32;;;;;;;0.60;0.30;;;;;;;;;;4198748;28;20580;-40
2022/12/13 02:24:54;;;;;;;0.30;0.30;;;;;;;;;;4194465;28;20056;-39
2022/12/13 02:27:14;;;;;;;0.93;0.57;;;;;;;;;;4215716;28;20094;-39
2022/12/13 02:29:15;;;;;;;;;;;;;;;;;;4230435;28;20051;-39
2022/12/13 02:31:22;;;;;;;0.50;0.40;;;;;;;;;;4219972;28;20249;-39
2022/12/13 02:33:39;;;;;;;1.13;0.40;;;;;;;;;;4212385;28;20475;-39
2022/12/13 02:35:59;;;;;;;1.08;0.57;;;;;;;;;;4198591;28;20052;-39
2022/12/13 02:38:15;;;;;;;0.40;0.30;;;;;;;;;;4219909;28;20052;-40
2022/12/13 02:40:23;;;;;;;0.50;0.35;;;;;;;;;;4193992;28;20522;-39
2022/12/13 02:42:29;;;;;;;0.93;0.30;;;;;;;;;;4194716;28;20145;-39
2022/12/13 02:44:55;;;;;;;0.47;0.40;;;;;;;;;;4212745;28;20082;-39
2022/12/13 02:47:04;;;;;;;0.40;0.40;;;;;;;;;;4209705;28;20059;-40
2022/12/13 02:49:06;;;;;;;0.88;0.40;;;;;;;;;;4199964;28;20458;-39
2022/12/13 02:51:09;;;;;;;0.90;0.40;;;;;;;;;;4203779;28;20129;-40
2022/12/13 02:53:11;;;;;;;0.32;0.30;;;;;;;;;;4211129;28;20047;-39
2022/12/13 02:55:14;;;;;;;0.73;0.40;;;;;;;;;;4228606;28;20414;-39
2022/12/13 02:57:45;;;;;;;0.60;0.32;;;;;;;;;;4211198;28;20337;-39
2022/12/13 02:59:46;;;;;;;0.60;0.40;;;;;;;;;;4199446;28;20056;-39
2022/12/13 03:02:17;;;;;;;0.45;0.40;;;;;;;;;;4228521;28;20055;-39
2022/12/13 03:07:23;;;;;;;2.10;0.50;;;;;;;;;;4188787;28;20057;-39
2022/12/13 03:09:42;;;;;;;0.40;0.38;;;;;;;;;;4193547;28;20401;-40
2022/12/13 03:14:22;;;;;;;0.45;0.40;;;;;;;;;;4188811;28;20059;-40
2022/12/13 03:16:37;;;;;;;0.30;0.20;;;;;;;;;;4211713;28;20549;-39
2022/12/13 03:18:38;;;;;;;0.70;0.20;;;;;;;;;;4194009;28;20088;-40
2022/12/13 03:20:50;;;;;;;0.90;0.40;;;;;;;;;;4177680;28;20053;-39
2022/12/13 03:22:52;;;;;;;0.80;0.40;;;;;;;;;;4194097;28;20063;-40
2022/12/13 03:24:53;;;;;;;0.75;0.32;;;;;;;;;;4211893;28;20048;-39
2022/12/13 03:26:54;;;;;;;0.50;0.35;;;;;;;;;;4211148;28;20048;-40
2022/12/13 03:28:56;;;;;;;0.65;0.40;;;;;;;;;;4202327;28;20346;-40
2022/12/13 03:30:57;;;;;;;1.05;0.45;;;;;;;;;;4195208;28;20052;-39
2022/12/13 03:32:59;;;;;;;1.42;0.50;;;;;;;;;;4190774;28;20533;-39
2022/12/13 03:35:00;;;;;;;0.85;0.32;;;;;;;;;;4200489;28;20098;-39
2022/12/13 03:37:01;;;;;;;0.40;0.32;;;;;;;;;;4211770;28;20385;-39
2022/12/13 03:39:02;;;;;;;0.45;0.30;;;;;;;;;;4181762;28;20088;-39
2022/12/13 03:41:08;;;;;;;1.35;0.32;;;;;;;;;;4190546;28;20052;-40
2022/12/13 03:43:10;;;;;;;0.52;0.40;;;;;;;;;;4195131;28;20053;-39
2022/12/13 03:45:11;;;;;;;0.75;0.40;;;;;;;;;;4203470;28;20063;-39
2022/12/13 03:47:13;;;;;;;0.80;0.32;;;;;;;;;;4200621;28;20404;-39
2022/12/13 03:49:14;;;;;;;0.30;0.30;;;;;;;;;;4206142;28;20056;-40
2022/12/13 03:51:15;;;;;;;0.57;0.30;;;;;;;;;;4195440;28;20483;-39
2022/12/13 03:53:17;;;;;;;1.40;0.40;;;;;;;;;;4184400;28;20052;-39
2022/12/13 03:55:18;;;;;;;1.05;0.40;;;;;;;;;;4201119;28;20064;-39
2022/12/13 03:57:19;;;;;;;0.50;0.30;;;;;;;;;;4195093;28;20403;-39
2022/12/13 03:59:21;;;;;;;0.57;0.40;;;;;;;;;;4193269;28;20049;-39
2022/12/13 04:01:22;;;;;;;0.55;0.40;;;;;;;;;;4205633;28;20056;-39
2022/12/13 04:03:24;;;;;;;0.80;0.47;;;;;;;;;;4195224;28;20052;-39
2022/12/13 04:05:25;;;;;;;0.63;0.30;;;;;;;;;;4207413;28;20121;-39
2022/12/13 04:07:26;;;;;;;0.93;0.60;;;;;;;;;;4211431;28;20408;-39
2022/12/13 04:09:27;;;;;;;0.60;0.38;;;;;;;;;;4192966;28;20076;-39
2022/12/13 04:13:49;;;;;;;0.65;0.40;;;;;;;;;;4211221;28;20086;-40
2022/12/13 04:15:51;;;;;;;0.63;0.40;;;;;;;;;;4199056;28;20048;-39
2022/12/13 04:17:52;;;;;;;0.30;0.22;;;;;;;;;;4197024;28;20052;-40
2022/12/13 04:19:53;;;;;;;0.52;0.30;;;;;;;;;;4211465;28;20125;-40
2022/12/13 04:21:54;;;;;;;0.55;0.35;;;;;;;;;;4211824;28;20056;-40
2022/12/13 04:23:56;;;;;;;0.60;0.30;;;;;;;;;;4211112;28;20185;-40
2022/12/13 04:25:57;;;;;;;0.55;0.30;;;;;;;;;;4211345;28;20432;-41
2022/12/13 04:27:59;;;;;;;0.47;0.38;;;;;;;;;;4193866;28;20082;-39
2022/12/13 04:30:00;;;;;;;0.50;0.20;;;;;;;;;;4203754;28;20114;-39
2022/12/13 04:32:04;;;;;;;0.63;0.40;;;;;;;;;;4205868;28;20093;-40
2022/12/13 04:34:06;;;;;;;0.82;0.45;;;;;;;;;;4176472;28;20052;-39
2022/12/13 04:36:08;;;;;;;0.20;0.17;;;;;;;;;;4207445;28;20068;-39
2022/12/13 04:38:09;;;;;;;1.55;0.52;;;;;;;;;;4195310;28;20171;-40
2022/12/13 04:40:10;;;;;;;0.98;0.30;;;;;;;;;;4207900;28;20528;-39
2022/12/13 04:42:12;;;;;;;0.17;0.17;;;;;;;;;;4201143;28;20510;-40
2022/12/13 04:44:13;;;;;;;1.33;0.40;;;;;;;;;;4214417;28;20396;-39
2022/12/13 04:46:15;;;;;;;0.40;0.20;;;;;;;;;;4208589;28;20069;-39
2022/12/13 04:48:16;;;;;;;0.22;0.20;;;;;;;;;;4202857;28;20053;-40
2022/12/13 04:50:17;;;;;;;0.77;0.45;;;;;;;;;;4197869;28;20060;-40
2022/12/13 04:52:19;;;;;;;0.60;0.20;;;;;;;;;;4199915;28;20075;-39
2022/12/13 04:54:20;;;;;;;1.77;0.43;;;;;;;;;;4213928;28;20105;-39
2022/12/13 04:56:21;;;;;;;0.55;0.28;;;;;;;;;;4189913;28;20597;-39
2022/12/13 04:58:23;;;;;;;0.30;0.30;;;;;;;;;;4206758;28;20052;-40
2022/12/13 05:00:25;;;;;;;0.57;0.30;;;;;;;;;;4196045;28;20421;-40
2022/12/13 05:02:26;;;;;;;0.70;0.30;;;;;;;;;;4213773;28;20052;-39
2022/12/13 05:04:28;;;;;;;0.30;0.20;;;;;;;;;;4214203;28;20059;-40
2022/12/13 05:06:29;;;;;;;0.50;0.40;;;;;;;;;;4205938;28;20090;-41
2022/12/13 05:08:31;;;;;;;0.60;0.30;;;;;;;;;;4197008;28;20457;-39
2022/12/13 05:10:33;;;;;;;0.47;0.25;;;;;;;;;;4197111;28;20118;-39
2022/12/13 05:12:35;;;;;;;0.68;0.20;;;;;;;;;;4197462;28;20472;-39
2022/12/13 05:14:36;;;;;;;0.52;0.30;;;;;;;;;;4204798;28;20399;-39
2022/12/13 05:16:37;;;;;;;0.98;0.30;;;;;;;;;;4203420;28;20109;-39
2022/12/13 05:18:38;;;;;;;0.68;0.30;;;;;;;;;;4197319;28;20514;-40
2022/12/13 05:20:40;;;;;;;0.50;0.30;;;;;;;;;;4214059;28;20052;-40
2022/12/13 05:22:41;;;;;;;1.75;0.30;;;;;;;;;;4214039;28;20056;-39
2022/12/13 05:24:43;;;;;;;0.32;0.30;;;;;;;;;;4203617;28;20079;-39
2022/12/13 05:26:45;;;;;;;0.52;0.30;;;;;;;;;;4197117;28;20052;-39
2022/12/13 05:28:46;;;;;;;0.50;0.30;;;;;;;;;;4197118;28;20056;-39
2022/12/13 05:30:47;;;;;;;0.60;0.40;;;;;;;;;;4190106;28;20459;-39
2022/12/13 05:32:49;;;;;;;0.40;0.20;;;;;;;;;;4197886;28;20060;-39
2022/12/13 05:34:50;;;;;;;0.75;0.40;;;;;;;;;;4213341;28;20066;-40
2022/12/13 05:36:52;;;;;;;0.50;0.30;;;;;;;;;;4182367;28;20057;-40
2022/12/13 05:38:53;;;;;;;0.85;0.30;;;;;;;;;;4213227;28;20133;-39
2022/12/13 05:40:54;;;;;;;0.55;0.35;;;;;;;;;;4213703;28;20052;-40
2022/12/13 05:42:56;;;;;;;0.32;0.30;;;;;;;;;;4213743;28;20450;-40
2022/12/13 05:44:58;;;;;;;0.45;0.40;;;;;;;;;;4200810;28;20052;-39
2022/12/13 05:46:59;;;;;;;0.60;0.30;;;;;;;;;;4196465;28;20056;-39
2022/12/13 05:49:01;;;;;;;0.73;0.43;;;;;;;;;;4184166;28;20095;-39
2022/12/13 05:51:03;;;;;;;0.20;0.10;;;;;;;;;;4196088;28;20053;-39
2022/12/13 05:53:04;;;;;;;0.45;0.22;;;;;;;;;;4190666;28;20056;-39
2022/12/13 05:55:06;;;;;;;0.38;0.20;;;;;;;;;;4212687;28;20051;-39
2022/12/13 05:57:08;;;;;;;0.82;0.35;;;;;;;;;;4208656;28;20156;-39
2022/12/13 05:59:10;;;;;;;0.30;0.30;;;;;;;;;;4186547;28;20585;-39
2022/12/13 06:01:13;;;;;;;0.30;0.20;;;;;;;;;;4202056;28;20118;-39
2022/12/13 06:03:15;;;;;;;0.65;0.40;;;;;;;;;;4207982;28;20060;-39
2022/12/13 06:05:16;;;;;;;1.25;0.38;;;;;;;;;;4176718;28;20385;-39
2022/12/13 06:07:18;;;;;;;0.82;0.40;;;;;;;;;;4186110;28;20395;-39
2022/12/13 06:09:20;;;;;;;1.13;0.60;;;;;;;;;;4204320;28;20071;-39
2022/12/13 06:11:21;;;;;;;0.25;0.25;;;;;;;;;;4181676;28;20427;-40
2022/12/13 06:13:23;;;;;;;0.47;0.30;;;;;;;;;;4197273;28;20114;-40
2022/12/13 06:15:24;;;;;;;1.10;0.40;;;;;;;;;;4210926;28;20375;-39
2022/12/13 06:17:30;;;;;;;1.35;0.60;;;;;;;;;;4201462;28;20122;-39
2022/12/13 06:19:31;;;;;;;1.65;0.60;;;;;;;;;;4207716;28;20052;-40
2022/12/13 06:21:32;;;;;;;3.22;0.60;;;;;;;;;;4197028;28;20086;-39
2022/12/13 06:23:35;;;;;;;2.67;0.65;;;;;;;;;;4210375;28;20462;-39
2022/12/13 06:25:36;;;;;;;2.58;0.55;;;;;;;;;;4201447;28;20067;-39
2022/12/13 06:27:38;;;;;;;1.48;0.52;;;;;;;;;;4194066;28;20514;-39
2022/12/13 06:29:39;;;;;;;1.50;0.47;;;;;;;;;;4209133;28;20125;-39
2022/12/13 06:31:40;;;;;;;2.15;0.73;;;;;;;;;;4205709;28;20490;-39
2022/12/13 06:33:42;;;;;;;1.70;0.85;;;;;;;;;;4194087;28;20114;-39
2022/12/13 06:35:43;;;;;;;3.03;0.60;;;;;;;;;;4205567;28;20143;-39
2022/12/13 06:37:44;;;;;;;2.28;0.77;;;;;;;;;;4195576;28;20091;-39
2022/12/13 06:39:46;;;;;;;1.73;0.77;;;;;;;;;;4193537;28;20458;-39
2022/12/13 06:41:48;;;;;;;3.03;0.60;;;;;;;;;;4200622;28;20052;-39
2022/12/13 06:43:49;;;;;;;6.28;1.00;;;;;;;;;;4203657;28;20106;-39
2022/12/13 06:45:51;;;;;;;3.90;0.70;;;;;;;;;;4200114;28;20056;-39
2022/12/13 06:47:52;;;;;;;2.95;0.88;;;;;;;;;;4203212;28;20044;-39
2022/12/13 06:49:54;;;;;;;3.58;0.75;;;;;;;;;;4199645;28;20056;-40
2022/12/13 06:51:55;;;;;;;3.97;1.05;;;;;;;;;;4202644;28;20527;-39
2022/12/13 06:53:56;;;;;;;2.88;0.85;;;;;;;;;;4195537;28;20392;-39
2022/12/13 06:56:03;;;;;;;2.55;0.70;;;;;;;;;;4208554;28;20189;-39
2022/12/13 06:58:04;;;;;;;1.60;0.90;;;;;;;;;;4203026;28;20044;-39
2022/12/13 07:00:08;;;;;;;2.58;0.90;;;;;;;;;;4191191;28;20800;-40
2022/12/13 07:02:09;;;;;;;3.25;0.60;;;;;;;;;;4187530;28;20223;-39
2022/12/13 07:04:11;;;;;;;2.70;0.80;;;;;;;;;;4196123;28;20495;-39
2022/12/13 07:06:18;;;;;;;4.20;0.93;;;;;;;;;;4200143;28;20060;-39
2022/12/13 07:08:19;;;;;;;4.55;0.70;;;;;;;;;;4196499;28;20122;-40
2022/12/13 07:10:21;;;;;;;1.65;0.80;;;;;;;;;;4196005;28;20056;-39
2022/12/13 07:12:23;;;;;;;2.92;0.60;;;;;;;;;;4189517;28;20052;-39
2022/12/13 07:14:24;;;;;;;2.60;0.50;;;;;;;;;;4190526;28;20462;-39
2022/12/13 07:16:26;;;;;;;2.22;0.60;;;;;;;;;;4188039;28;20415;-40
2022/12/13 07:18:28;;;;;;;3.05;0.75;;;;;;;;;;4190171;28;20052;-39
2022/12/13 07:20:29;;;;;;;2.17;0.90;;;;;;;;;;4191420;28;20060;-39
2022/12/13 07:22:31;;;;;;;3.10;0.88;;;;;;;;;;4185052;28;20795;-39
2022/12/13 07:24:33;;;;;;;0.95;0.65;;;;;;;;;;4188445;28;20056;-39
2022/12/13 07:26:34;;;;;;;2.88;0.73;;;;;;;;;;4189557;28;20059;-39
2022/12/13 07:28:36;;;;;;;1.40;0.57;;;;;;;;;;4170991;28;20057;-39
2022/12/13 07:30:38;;;;;;;2.55;0.60;;;;;;;;;;4190451;28;20056;-39
2022/12/13 07:32:39;;;;;;;3.28;0.65;;;;;;;;;;4157730;28;20065;-40
2022/12/13 07:34:40;;;;;;;3.72;0.60;;;;;;;;;;4154482;28;20088;-39
2022/12/13 07:36:42;;;;;;;2.72;0.45;;;;;;;;;;4152801;28;20127;-39
2022/12/13 07:38:43;;;;;;;2.15;0.43;;;;;;;;;;4191924;28;20060;-39
2022/12/13 07:40:44;;;;;;;1.52;0.70;;;;;;;;;;4191417;28;20106;-39
2022/12/13 07:42:52;;;;;;;4.47;0.40;;;;;;;;;;4191663;28;20060;-39
2022/12/13 07:44:54;;;;;;;1.30;0.55;;;;;;;;;;4191513;28;20083;-39
2022/12/13 07:46:55;;;;;;;4.07;0.98;;;;;;;;;;4184001;28;20057;-40
2022/12/13 07:48:56;;;;;;;2.05;0.40;;;;;;;;;;4185215;28;20383;-41
2022/12/13 07:51:03;;;;;;;3.20;0.60;;;;;;;;;;4187769;28;20129;-41
2022/12/13 07:53:06;;;;;;;1.08;0.60;;;;;;;;;;4165833;28;20111;-45
2022/12/13 07:55:07;;;;;;;5.75;0.68;;;;;;;;;;4171939;28;20060;-42
2022/12/13 07:57:09;;;;;;;2.92;0.73;;;;;;;;;;4182884;28;20158;-40
2022/12/13 07:59:10;;;;;;;3.33;0.40;;;;;;;;;;4160084;28;20057;-43
2022/12/13 08:01:12;;;;;;;1.15;0.40;;;;;;;;;;4176335;28;20087;-42
2022/12/13 08:03:14;;;;;;;1.75;0.45;;;;;;;;;;4187441;28;20056;-41
2022/12/13 08:05:15;;;;;;;2.88;0.47;;;;;;;;;;4176076;28;20115;-42
2022/12/13 08:07:17;;;;;;;1.90;0.80;;;;;;;;;;4181170;28;20469;-41
2022/12/13 08:09:18;;;;;;;2.55;0.60;;;;;;;;;;4184689;28;20045;-40
2022/12/13 08:11:20;;;;;;;1.80;0.70;;;;;;;;;;4201847;28;20056;-41
2022/12/13 08:13:22;;;;;;;1.15;0.30;;;;;;;;;;4196156;28;20060;-41
2022/12/13 08:15:24;;;;;;;1.23;0.40;;;;;;;;;;4198925;28;20098;-41
2022/12/13 08:17:25;;;;;;;2.10;0.98;;;;;;;;;;4180305;28;20114;-42
2022/12/13 08:19:26;;;;;;;2.60;0.70;;;;;;;;;;4198027;28;20101;-41
2022/12/13 08:21:28;;;;;;;3.20;1.10;;;;;;;;;;4172492;28;20087;-42
2022/12/13 08:23:30;;;;;;;4.25;0.93;;;;;;;;;;4196322;28;20063;-41
2022/12/13 08:25:32;;;;;;;1.10;0.50;;;;;;;;;;4191483;28;20086;-40
2022/12/13 08:27:34;;;;;;;2.53;0.55;;;;;;;;;;4198807;28;20197;-40
2022/12/13 08:29:35;;;;;;;2.95;0.88;;;;;;;;;;4192462;28;20060;-40
2022/12/13 08:31:37;;;;;;;3.38;1.02;;;;;;;;;;4195466;28;20059;-41
2022/12/13 08:33:39;;;;;;;2.47;0.70;;;;;;;;;;4191898;28;20070;-40
2022/12/13 08:35:40;;;;;;;2.75;0.50;;;;;;;;;;4190719;28;20937;-40
2022/12/13 08:37:42;;;;;;;2.92;0.68;;;;;;;;;;4199291;28;20052;-39
2022/12/13 08:39:43;;;;;;;2.60;0.70;;;;;;;;;;4192875;28;20052;-39
2022/12/13 08:41:44;;;;;;;2.42;0.57;;;;;;;;;;4169517;28;20078;-39
2022/12/13 08:43:46;;;;;;;1.92;0.68;;;;;;;;;;4185403;28;20074;-39
2022/12/13 08:45:48;;;;;;;3.97;0.70;;;;;;;;;;4187536;28;20408;-40
2022/12/13 08:47:50;;;;;;;3.92;0.70;;;;;;;;;;4166641;28;20057;-39
2022/12/13 08:49:57;;;;;;;2.72;0.70;;;;;;;;;;4183218;28;20085;-40
2022/12/13 08:51:59;;;;;;;2.50;0.82;;;;;;;;;;4183967;28;20342;-40
2022/12/13 08:54:00;;;;;;;2.22;0.50;;;;;;;;;;4182037;28;20090;-38
2022/12/13 08:56:03;;;;;;;3.33;0.70;;;;;;;;;;4162932;28;20496;-41
2022/12/13 08:58:08;;;;;;;1.08;0.60;;;;;;;;;;4192867;28;20057;-42
2022/12/13 09:00:13;;;;;;;2.28;0.73;;;;;;;;;;4178367;28;20056;-39
2022/12/13 09:02:15;;;;;;;2.03;0.45;;;;;;;;;;4173207;28;20132;-39
2022/12/13 09:04:16;;;;;;;3.53;0.90;;;;;;;;;;4178789;28;20537;-42
2022/12/13 09:06:18;;;;;;;3.70;0.82;;;;;;;;;;4177861;28;20067;-39
2022/12/13 09:08:19;;;;;;;2.30;0.40;;;;;;;;;;4159369;28;20629;-38
2022/12/13 09:10:20;;;;;;;1.40;0.52;;;;;;;;;;4179568;28;20056;-41
2022/12/13 09:12:22;;;;;;;2.20;0.88;;;;;;;;;;4178589;28;20490;-41
2022/12/13 09:14:23;;;;;;;2.45;0.45;;;;;;;;;;4184110;28;20101;-40
2022/12/13 09:16:25;;;;;;;6.20;0.77;;;;;;;;;;4173985;28;20055;-40
2022/12/13 09:18:27;;;;;;;2.65;0.55;;;;;;;;;;4180429;28;20113;-41
2022/12/13 09:20:30;;;;;;;0.40;0.30;;;;;;;;;;4185704;28;20048;-40
2022/12/13 09:22:31;;;;;;;1.50;0.47;;;;;;;;;;4159653;28;20408;-42
2022/12/13 09:24:32;;;;;;;1.23;0.50;;;;;;;;;;4180519;28;20064;-39
2022/12/13 09:26:33;;;;;;;3.63;0.50;;;;;;;;;;4182511;28;20141;-41
2022/12/13 09:28:36;;;;;;;2.40;0.80;;;;;;;;;;4168978;28;20109;-39
2022/12/13 09:30:38;;;;;;;1.08;0.40;;;;;;;;;;4191336;28;20098;-38
2022/12/13 09:32:39;;;;;;;2.45;0.40;;;;;;;;;;4181835;28;20109;-39
2022/12/13 09:34:40;;;;;;;4.15;0.35;;;;;;;;;;4186497;28;20955;-39
2022/12/13 09:36:42;;;;;;;0.52;0.35;;;;;;;;;;4182991;28;20574;-39
2022/12/13 09:38:43;;;;;;;0.68;0.40;;;;;;;;;;4183392;28;20056;-39
2022/12/13 09:40:47;;;;;;;1.33;0.63;;;;;;;;;;4179520;28;22715;-38
2022/12/13 09:42:51;;;;;;;2.42;0.70;;;;;;;;;;4183105;28;21577;-38
2022/12/13 09:44:59;;;;;;;2.47;0.50;;;;;;;;;;4181158;28;20060;-37
2022/12/13 09:47:03;;;;;;;1.80;0.45;;;;;;;;;;4162627;28;20053;-37
2022/12/13 09:49:29;;;;;;;0.45;0.30;;;;;;;;;;4177809;28;20075;-37
2022/12/13 09:51:32;;;;;;;0.90;0.20;;;;;;;;;;4159655;28;20052;-37
2022/12/13 09:53:33;;;;;;;1.33;0.30;;;;;;;;;;4192563;28;20060;-37
2022/12/13 09:55:40;;;;;;;0.43;0.28;;;;;;;;;;4187140;28;20055;-37
2022/12/13 09:57:42;;;;;;;0.30;0.28;;;;;;;;;;4179613;28;20648;-37
2022/12/13 09:59:44;;;;;;;2.20;0.32;;;;;;;;;;4167266;28;20055;-37
2022/12/13 10:01:45;;;;;;;3.67;0.60;;;;;;;;;;4181925;28;21084;-37
2022/12/13 10:03:50;;;;;;;1.42;0.32;;;;;;;;;;4180534;28;20187;-37
2022/12/13 10:06:13;;;;;;;0.35;0.30;;;;;;;;;;4168636;28;20060;-37
2022/12/13 10:08:19;;;;;;;1.52;0.40;;;;;;;;;;4187638;28;20133;-37
2022/12/13 10:10:21;;;;;;;0.70;0.40;;;;;;;;;;4167563;28;20072;-36
2022/12/13 10:12:22;;;;;;;2.00;0.50;;;;;;;;;;4181437;28;20066;-37
2022/12/13 10:14:36;;;;;;;3.60;0.30;;;;;;;;;;4155682;28;20100;-39
2022/12/13 10:16:43;;;;;;;0.70;0.40;;;;;;;;;;4186567;28;20145;-38
2022/12/13 10:18:45;;;;;;;1.83;0.40;;;;;;;;;;4180536;28;20103;-40
2022/12/13 10:20:48;;;;;;;0.98;0.57;;;;;;;;;;4184255;28;20059;-41
2022/12/13 10:22:49;;;;;;;0.95;0.40;;;;;;;;;;4186256;28;20201;-44
2022/12/13 10:25:02;;;;;;;0.88;0.43;;;;;;;;;;4185880;28;20461;-42
2022/12/13 10:27:40;;;;;;;0.47;0.35;;;;;;;;;;4185400;28;20106;-42
2022/12/13 10:30:06;;;;;;;1.00;0.50;;;;;;;;;;4164272;28;20068;-39
2022/12/13 10:32:12;;;;;;;0.70;0.40;;;;;;;;;;4183626;28;20138;-39
2022/12/13 10:34:27;;;;;;;1.10;0.63;;;;;;;;;;4189312;28;20056;-39
2022/12/13 10:36:34;;;;;;;2.35;0.57;;;;;;;;;;4186760;28;20055;-40
2022/12/13 10:38:41;;;;;;;0.68;0.32;;;;;;;;;;4180009;28;20137;-42
2022/12/13 10:40:44;;;;;;;0.55;0.28;;;;;;;;;;4185830;28;20196;-42
2022/12/13 10:42:45;;;;;;;0.93;0.40;;;;;;;;;;4180646;28;20052;-41
2022/12/13 10:44:48;;;;;;;2.80;0.40;;;;;;;;;;4152391;28;20202;-42
2022/12/13 10:47:04;;;;;;;2.45;0.40;;;;;;;;;;4166776;28;20764;-40
2022/12/13 10:49:16;;;;;;;1.15;0.30;;;;;;;;;;4167406;28;20167;-39
2022/12/13 10:51:19;;;;;;;1.90;0.90;;;;;;;;;;4166905;28;20048;-41
2022/12/13 10:53:21;;;;;;;2.28;0.50;;;;;;;;;;4162825;28;20056;-40
2022/12/13 10:55:31;;;;;;;2.83;0.45;;;;;;;;;;4186133;28;22177;-38
2022/12/13 10:57:33;;;;;;;0.63;0.40;;;;;;;;;;4167326;28;20102;-41
2022/12/13 10:59:36;;;;;;;3.40;0.30;;;;;;;;;;4163209;28;20202;-39
2022/12/13 11:01:38;;;;;;;0.65;0.45;;;;;;;;;;4183815;28;20056;-39
2022/12/13 11:03:39;;;;;;;1.10;0.50;;;;;;;;;;4183851;28;20061;-42
2022/12/13 11:05:41;;;;;;;0.68;0.40;;;;;;;;;;4179110;28;20358;-41
2022/12/13 11:07:42;;;;;;;0.70;0.30;;;;;;;;;;4183488;28;20125;-40
2022/12/13 11:09:44;;;;;;;3.25;0.68;;;;;;;;;;4184936;28;20086;-40
2022/12/13 11:11:49;;;;;;;2.13;0.40;;;;;;;;;;4167208;28;20056;-41
2022/12/13 11:13:53;;;;;;;0.57;0.40;;;;;;;;;;4192683;28;20574;-41
2022/12/13 11:15:55;;;;;;;0.80;0.40;;;;;;;;;;4192175;28;20539;-44
2022/12/13 11:18:20;;;;;;;0.60;0.40;;;;;;;;;;4150333;28;20056;-42
2022/12/13 11:20:29;;;;;;;1.20;0.35;;;;;;;;;;4176224;28;20319;-41
2022/12/13 11:22:36;;;;;;;1.05;0.50;;;;;;;;;;4170155;28;20052;-40
2022/12/13 11:24:39;;;;;;;1.23;0.43;;;;;;;;;;4174818;28;20048;-40
2022/12/13 11:26:44;;;;;;;1.52;0.30;;;;;;;;;;4188049;28;20085;-41
2022/12/13 11:28:54;;;;;;;0.75;0.50;;;;;;;;;;4167787;28;20068;-40
2022/12/13 11:31:17;;;;;;;0.52;0.40;;;;;;;;;;4183127;28;20060;-41
2022/12/13 11:33:33;;;;;;;0.40;0.40;;;;;;;;;;4186626;28;20063;-40
2022/12/13 11:36:07;;;;;;;0.50;0.30;;;;;;;;;;4179689;28;20197;-41
2022/12/13 11:38:40;;;;;;;0.52;0.47;;;;;;;;;;4158111;28;20061;-40
2022/12/13 11:40:48;;;;;;;1.20;0.52;;;;;;;;;;4159242;28;20142;-41
2022/12/13 11:42:54;;;;;;;0.75;0.40;;;;;;;;;;4190981;28;20059;-40
2022/12/13 11:45:15;;;;;;;1.10;0.40;;;;;;;;;;4182826;28;20094;-40
2022/12/13 11:47:24;;;;;;;0.90;0.30;;;;;;;;;;4180253;28;20048;-39
2022/12/13 11:49:34;;;;;;;1.85;0.40;;;;;;;;;;4184183;28;20075;-40
2022/12/13 11:51:39;;;;;;;;;;;;;;;;;;4160187;28;20097;-40
2022/12/13 11:53:53;;;;;;;1.85;0.50;;;;;;;;;;4174968;28;20282;-41
2022/12/13 11:56:10;;;;;;;1.92;0.50;;;;;;;;;;4137343;28;20166;-39
2022/12/13 11:58:19;;;;;;;1.75;0.40;;;;;;;;;;4184291;28;20101;-39
2022/12/13 12:00:31;;;;;;;1.65;0.60;;;;;;;;;;4157140;28;20110;-39
2022/12/13 12:02:34;;;;;;;3.22;0.60;;;;;;;;;;4141984;28;20066;-39
2022/12/13 12:04:42;;;;;;;1.63;0.68;;;;;;;;;;4140794;28;20072;-40
2022/12/13 12:06:50;;;;;;;2.75;0.60;;;;;;;;;;4149481;28;20087;-39
2022/12/13 12:09:02;;;;;;;3.05;0.43;;;;;;;;;;4176315;28;20052;-37
2022/12/13 12:11:10;;;;;;;2.90;0.55;;;;;;;;;;4168163;28;20052;-40
2022/12/13 12:13:22;;;;;;;1.77;0.47;;;;;;;;;;4184557;28;20058;-39
2022/12/13 12:15:27;;;;;;;1.75;0.65;;;;;;;;;;4161746;28;20111;-39
2022/12/13 12:17:28;;;;;;;1.98;0.60;;;;;;;;;;4187727;28;20679;-38
2022/12/13 12:19:37;;;;;;;2.20;0.75;;;;;;;;;;4172638;28;20341;-38
2022/12/13 12:22:10;;;;;;;1.58;0.52;;;;;;;;;;4162564;28;20075;-41
2022/12/13 12:24:35;;;;;;;3.20;0.57;;;;;;;;;;4145491;28;20764;-39
2022/12/13 12:26:47;;;;;;;0.95;0.55;;;;;;;;;;4188204;28;20052;-38
2022/12/13 12:29:18;;;;;;;3.42;0.82;;;;;;;;;;4189687;28;20121;-39
2022/12/13 12:31:37;;;;;;;1.27;0.60;;;;;;;;;;4183029;28;20063;-40
2022/12/13 12:34:12;;;;;;;1.10;0.60;;;;;;;;;;4160179;28;21694;-38